Hastings Natural History Reservation, California Weather observations

Data are for 10 minute period ending at time listed.
 Day   Time   Solar   Ave.   Ave.  Ave.  Vector  Max.   Baro.   Total    
  of    of     Rad.   Air    Rel.  Wind   Wind   Wind  Press.  Precip.   
Year   Day            Temp.  Hum.  Speed  Dir.   Gust                    
2015   (PST)  Kw/m2    F      %     mph   deg.    mph    mb.     in.     
-------------------------------------------------------------------------
 124   13:30   0.92   61.3    58    2.8   272     9.9   950.5    0.00 
 124   13:40   0.91   62.0    57    2.6   264    11.2   950.5    0.00 
 124   13:50   0.89   61.4    58    4.5   256    10.8   950.5    0.00 
 124   14:00   0.87   62.3    56    4.0   245    11.2   950.5    0.00 
 124   14:10   0.88   61.8    57    3.3   261     8.7   950.5    0.00 
 124   14:20   0.89   62.8    55    3.3   270     8.0   950.3    0.00 
 124   14:30   0.88   64.0    53    3.3   287    11.6   950.3    0.00 
 124   14:40   0.85   63.6    54    3.9   254    10.2   950.3    0.00 
 124   14:50   0.84   64.1    53    3.7   269     8.9   950.2    0.00 
 124   15:00   0.83   63.3    54    3.7   267    10.3   950.1    0.00 
 124   15:10   0.81   64.3    52    3.8   258    10.4   950.1    0.00 
 124   15:20   0.80   63.9    53    3.6   268     9.3   950.2    0.00 
 124   15:30   0.77   63.2    54    3.7   258     9.6   950.2    0.00 
 124   15:40   0.75   62.5    55    5.2   253    12.1   950.2    0.00 
 124   15:50   0.73   60.9    57    5.5   253    11.6   950.2    0.00 
 124   16:00   0.71   61.4    57    4.4   262    11.2   950.2    0.00 
 124   16:10   0.68   60.5    58    4.5   251    11.5   950.3    0.00 
 124   16:20   0.66   59.6    60    6.0   252    12.5   950.3    0.00 
 124   16:30   0.62   59.4    61    4.6   256    11.0   950.3    0.00 
 124   16:40   0.58   58.8    62    5.2   253    13.8   950.4    0.00 
 124   16:50   0.56   58.8    62    4.8   255    10.2   950.5    0.00 
 124   17:00   0.53   57.3    64    5.4   249    12.0   950.7    0.00 
 124   17:10   0.52   57.0    65    3.4   263     9.9   950.7    0.00 
 124   17:20   0.48   58.7    61    1.7   331     6.1   950.7    0.00 
 124   17:30   0.43   57.9    63    4.4   252    10.2   950.6    0.00 
 124   17:40   0.39   56.4    66    3.9   255     8.2   950.5    0.00 
 124   17:50   0.39   56.6    65    5.4   254    10.4   950.5    0.00 
 124   18:00   0.33   56.1    66    4.0   253     8.9   950.6    0.00 
 124   18:10   0.29   56.3    65    3.5   281     9.4   950.6    0.00 
 124   18:20   0.23   54.8    68    3.8   254     9.8   950.8    0.00 
 124   18:30   0.18   54.3    70    2.9   255     9.9   950.9    0.00 
 124   18:40   0.18   52.8    73    4.0   250     9.5   951.0    0.00 
 124   18:50   0.06   50.9    77    3.5   254     9.1   951.1    0.00 
 124   19:00   0.05   49.8    81    2.4   255     5.8   951.2    0.00 
 124   19:10   0.04   49.7    81    2.3   342     7.1   951.3    0.00 
 124   19:20   0.02   49.3    82    2.9   253     7.2   951.3    0.00 
 124   19:30   0.01   48.9    84    2.1   274     5.6   951.4    0.00 
 124   19:40   0.00   48.6    85    2.1   258     5.7   951.5    0.00 
 124   19:50   0.00   48.2    86    2.5   281     5.3   951.6    0.00 
 124   20:00   0.00   47.7    88    2.1   280     6.5   951.7    0.00 
 124   20:10   0.00   47.3    90    2.2   264     4.9   951.6    0.00 
 124   20:20   0.00   47.2    90    2.2   269     4.8   951.7    0.00 
 124   20:30   0.00   46.9    91    1.9   250     5.6   951.7    0.00 
 124   20:40   0.00   47.0    92    1.9   284     5.2   951.8    0.00 
 124   20:50   0.00   46.6    93    2.2   256     5.6   951.8    0.00 
 124   21:00   0.00   46.3    94    2.4   260     6.0   951.9    0.00 
 124   21:10   0.00   46.3    95    2.1   246     6.3   952.0    0.00 
 124   21:20   0.00   45.9    96    2.5   253     5.8   952.1    0.00 
 124   21:30   0.00   45.9    97    2.0   250     5.1   952.2    0.00 
 124   21:40   0.00   45.8    97    2.0   259     4.5   952.3    0.00 
 124   21:50   0.00   45.8    98    1.6   258     4.9   952.3    0.00 
 124   22:00   0.00   45.5    98    2.5   254     5.7   952.4    0.00 
 124   22:10   0.00   45.4    99    2.5   252     5.5   952.4    0.00 
 124   22:20   0.00   45.6    99    0.7   285     2.5   952.4    0.00 
 124   22:30   0.00   45.8    99    0.9   334     5.3   952.4    0.00 
 124   22:40   0.00   45.5    98    2.0     4     4.7   952.4    0.00 
 124   22:50   0.00   45.3    98    1.3    23     3.0   952.2    0.00 
 124   23:00   0.00   45.4    98    0.7   288     2.6   952.1    0.00 
 124   23:10   0.00   45.2    97    2.3   247     4.2   952.1    0.00 
 124   23:20   0.00   44.9    97    2.0   240     3.8   951.9    0.00 
 124   23:30   0.00   44.9    97    2.0   246     4.0   951.9    0.00 
 124   23:40   0.00   44.8    97    2.1   247     4.6   951.9    0.00 
 124   23:50   0.00   44.9    97    1.8   237     2.9   951.9    0.00 
 125    0:00   0.00   44.9    97    2.3   241     4.5   951.9    0.00 
 125    0:10   0.00   44.7    97    2.3   240     4.2   951.8    0.00 
 125    0:20   0.00   44.8    97    1.3   229     2.9   951.8    0.00 
 125    0:30   0.00   44.8    97    2.0   238     3.7   951.7    0.00 
 125    0:40   0.00   44.6    97    0.3   271     3.2   951.6    0.00 
 125    0:50   0.00   44.8    97    0.7    32     4.1   951.6    0.00 
 125    1:00   0.00   44.5    95    1.9    43     3.8   951.4    0.00 
 125    1:10   0.00   44.5    94    1.8    53     3.5   951.5    0.00 
 125    1:20   0.00   44.2    94    1.6    37     3.1   951.4    0.00 
 125    1:30   0.00   43.8    94    2.1    56     4.2   951.3    0.00 
 125    1:40   0.00   42.7    94    2.3    55     4.2   951.3    0.00 
 125    1:50   0.00   42.4    94    1.8    69     3.9   951.2    0.00 
 125    2:00   0.00   42.5    93    1.3    56     3.4   951.2    0.00 
 125    2:10   0.00   42.5    92    1.5    48     3.7   951.2    0.00 
 125    2:20   0.00   42.7    93    1.9    66     3.8   951.3    0.00 
 125    2:30   0.00   42.5    94    2.4    59     4.7   951.3    0.00 
 125    2:40   0.00   42.7    95    1.3    54     3.3   951.3    0.00 
 125    2:50   0.00   42.9    96    2.7    54     5.2   951.3    0.00 
 125    3:00   0.00   43.0    96    1.7     7     3.9   951.3    0.00 
 125    3:10   0.00   43.8    97    1.3    11     4.6   951.4    0.00 
 125    3:20   0.00   43.8    97    1.6    18     4.5   951.3    0.00 
 125    3:30   0.00   43.4    97    2.2    42     4.4   951.3    0.00 
 125    3:40   0.00   42.9    97    2.2    56     4.0   951.3    0.00 
 125    3:50   0.00   42.7    96    2.8    58     6.0   951.2    0.00 
 125    4:00   0.00   42.2    95    3.1    47     5.2   951.2    0.00 
 125    4:10   0.00   41.6    92    2.5    53     6.1   951.2    0.00 
 125    4:20   0.00   41.6    92    1.2    53     2.4   951.2    0.00 
 125    4:30   0.00   41.8    94    1.4    66     3.0   951.3    0.00 
 125    4:40   0.00   41.6    95    1.5    56     2.8   951.3    0.00 
 125    4:50   0.00   41.4    96    2.0    59     3.5   951.3    0.00 
 125    5:00   0.00   41.3    96    1.7    49     3.1   951.2    0.00 
 125    5:10   0.00   40.2    95    1.3    41     2.3   951.2    0.00 
 125    5:20   0.00   40.1    95    0.9    51     2.0   951.1    0.00 
 125    5:30   0.00   40.1    96    0.7    48     2.6   951.1    0.00 
 125    5:40   0.00   40.1    97    1.1    56     2.4   951.2    0.00 
 125    5:50   0.00   40.3    98    1.2    48     2.7   951.2    0.00 
 125    6:00   0.00   40.2    99    1.2    60     2.3   951.2    0.00 
 125    6:10   0.00   40.8   100    1.3    72     2.9   951.3    0.00 
 125    6:20   0.00   41.4   100    1.0   257     4.5   951.4    0.00 
 125    6:30   0.00   41.5   100    1.5   256     3.1   951.5    0.00 
 125    6:40   0.00   41.4   100    0.5   302     3.8   951.5    0.00 
 125    6:50   0.01   41.3   100    1.5     5     3.9   951.6    0.00 
 125    7:00   0.02   41.1   100    1.0    10     2.2   951.7    0.00 
 125    7:10   0.03   41.2   100    1.4    15     3.7   951.9    0.00 
 125    7:20   0.05   41.3   100    1.0    28     2.5   952.0    0.00 
 125    7:30   0.05   41.8   100    1.4   274     3.6   952.0    0.00 
 125    7:40   0.06   41.6   100    2.8   248     4.4   952.0    0.00 
 125    7:50   0.07   41.9   100    2.0   250     5.0   952.1    0.00 
 125    8:00   0.07   42.3   100    1.4     6     3.4   952.2    0.00 
 125    8:10   0.09   42.9   100    0.8   262     4.2   952.2    0.00 
 125    8:20   0.11   43.6   100    3.0   243     5.5   952.1    0.00 
 125    8:30   0.14   44.5    98    3.2   242     6.6   952.0    0.00 
 125    8:40   0.17   45.4    91    3.7   246     6.5   952.0    0.00 
 125    8:50   0.20   45.9    87    3.7   227     7.2   952.1    0.00 
 125    9:00   0.22   46.3    85    3.9   239     7.4   952.1    0.00 
 125    9:10   0.36   47.5    81    3.2   241     7.8   952.1    0.00 
 125    9:20   0.48   49.1    76    3.8   248     8.9   952.1    0.00 
 125    9:30   0.51   49.6    74    2.7   256     6.7   952.1    0.00 
 125    9:40   0.54   51.1    71    2.1   253     8.2   952.1    0.00 
 125    9:50   0.57   51.6    69    3.2   242     7.1   952.1    0.00 
 125   10:00   0.60   53.0    66    2.8   253     8.0   952.1    0.00 
 125   10:10   0.62   54.2    63    2.1   266     6.5   952.1    0.00 
 125   10:20   0.66   54.8    60    3.1   274     8.8   952.1    0.00 
 125   10:30   0.68   56.4    57    2.7   288     8.3   952.1    0.00 
 125   10:40   0.70   57.9    55    2.5     0     6.4   952.1    0.00 
 125   10:50   0.73   57.8    56    4.2   263     9.9   952.2    0.00 
 125   11:00   0.75   57.2    54    3.0   266     8.5   952.2    0.00 
 125   11:10   0.77   58.2    54    2.5   290     7.4   952.1    0.00 
 125   11:20   0.79   59.3    53    2.9   316     7.1   951.9    0.00 
 125   11:30   0.81   59.6    51    3.4   334    10.4   951.8    0.00 
 125   11:40   0.75   59.5    51    4.4   255    11.8   951.7    0.00 
 125   11:50   0.83   59.7    48    3.4   272    11.6   951.7    0.00 
 125   12:00   0.86   61.2    44    2.4   265     6.9   951.5    0.00 
 125   12:10   0.86   61.2    44    3.8   259    11.0   951.4    0.00 
 125   12:20   0.87   61.8    40    3.8   265    10.4   951.3    0.00 
 125   12:30   0.85   60.9    40    5.3   250    13.2   951.2    0.00 
 125   12:40   0.88   61.4    40    4.2   248    12.8   951.2    0.00 
 125   12:50   0.89   62.0    40    3.3   268     8.2   951.2    0.00 
 125   13:00   0.90   63.2    39    3.8   285    11.1   951.2    0.00 
 125   13:10   0.91   63.6    39    4.0   276    13.9   951.2    0.00 
 125   13:20   0.88   62.7    41    3.8   260    11.8   951.2    0.00 

Return to Hastings Natural History Reservation graphs page.


Western Regional Climate Center,wrcc@dri.edu